Time;durP1;ratioP1;P1;durP2;ratioP2;P2;SDS_P1;SDS_P2;PMS_P1;PMS_P2;Temp;Humidity;BMP_temperature;BMP_pressure;BME280_temperature;BME280_humidity;BME280_pressure;Samples;Min_cycle;Max_cycle;Signal;HPM_P1;HPM_P2
2021/06/09 00:00:10;;;;;;;20.02;16.38;;;17.90;90.90;;;;;;5050431;28;20040;-69
2021/06/09 00:02:36;;;;;;;19.13;15.77;;;17.90;90.80;;;;;;5052246;28;20112;-70
2021/06/09 00:05:04;;;;;;;24.35;16.02;;;17.90;90.80;;;;;;5051616;28;20020;-70
2021/06/09 00:07:30;;;;;;;20.25;15.68;;;17.80;90.70;;;;;;5047932;28;20029;-70
2021/06/09 00:09:55;;;;;;;17.13;14.07;;;17.80;90.60;;;;;;5046394;28;20025;-70
2021/06/09 00:12:21;;;;;;;16.77;14.80;;;17.70;90.60;;;;;;5040382;28;20017;-70
2021/06/09 00:14:46;;;;;;;20.90;15.02;;;17.70;90.70;;;;;;5047197;28;20038;-67
2021/06/09 00:17:12;;;;;;;17.60;14.77;;;17.60;90.70;;;;;;5032419;28;20021;-72
2021/06/09 00:19:38;;;;;;;23.08;15.00;;;17.60;90.80;;;;;;5034406;28;20033;-73
2021/06/09 00:22:04;;;;;;;20.35;15.10;;;17.50;90.70;;;;;;5034456;28;20112;-72
2021/06/09 00:24:30;;;;;;;17.58;14.65;;;17.30;90.80;;;;;;5020597;28;20026;-70
2021/06/09 00:26:55;;;;;;;16.98;14.18;;;17.20;91.00;;;;;;5051858;28;20029;-69
2021/06/09 00:29:21;;;;;;;17.25;14.13;;;17.20;91.10;;;;;;5052041;28;20017;-67
2021/06/09 00:31:48;;;;;;;21.15;16.13;;;17.30;91.30;;;;;;5049455;28;20025;-68
2021/06/09 00:34:14;;;;;;;19.02;15.55;;;17.20;91.30;;;;;;5049418;28;20116;-69
2021/06/09 00:36:40;;;;;;;20.10;15.88;;;17.20;91.30;;;;;;5052177;28;20108;-73
2021/06/09 00:39:06;;;;;;;20.73;17.08;;;17.30;91.40;;;;;;5051728;28;20033;-70
2021/06/09 00:41:33;;;;;;;26.27;17.05;;;17.20;91.30;;;;;;5032969;28;20057;-72
2021/06/09 00:44:01;;;;;;;22.00;17.50;;;17.20;91.30;;;;;;5031540;28;20104;-72
2021/06/09 00:46:35;;;;;;;17.95;15.10;;;17.10;91.30;;;;;;5033151;28;20389;-70
2021/06/09 00:49:01;;;;;;;35.05;16.98;;;17.10;91.60;;;;;;5034900;28;20105;-72
2021/06/09 00:51:26;;;;;;;24.92;17.65;;;17.10;91.60;;;;;;5048779;28;20112;-71
2021/06/09 00:53:55;;;;;;;28.55;17.48;;;17.10;91.60;;;;;;5041006;28;20473;-70
2021/06/09 00:56:23;;;;;;;21.73;17.17;;;17.10;91.60;;;;;;5029101;28;20555;-71
2021/06/09 00:58:50;;;;;;;24.15;17.95;;;17.10;91.70;;;;;;5042456;28;20048;-71
2021/06/09 01:01:18;;;;;;;21.45;18.73;;;17.10;91.70;;;;;;5031206;28;20453;-70
2021/06/09 01:03:44;;;;;;;27.25;17.77;;;17.10;91.80;;;;;;5051071;28;20094;-72
2021/06/09 01:06:10;;;;;;;34.85;16.55;;;17.10;91.80;;;;;;5030774;28;20159;-72
2021/06/09 01:08:38;;;;;;;22.77;17.50;;;17.10;91.80;;;;;;5031746;28;20086;-72
2021/06/09 01:11:05;;;;;;;21.70;17.50;;;17.10;91.80;;;;;;5048974;28;20029;-72
2021/06/09 01:13:31;;;;;;;24.70;16.73;;;17.10;91.90;;;;;;5049385;28;20021;-72
2021/06/09 01:15:58;;;;;;;24.38;16.17;;;17.10;91.90;;;;;;5020836;28;20030;-72
2021/06/09 01:18:24;;;;;;;21.08;15.90;;;17.10;92.00;;;;;;5031302;28;20026;-72
2021/06/09 01:20:50;;;;;;;21.27;16.05;;;17.10;92.20;;;;;;5041098;28;20036;-72
2021/06/09 01:23:17;;;;;;;16.88;15.05;;;17.10;91.90;;;;;;5049163;28;20017;-72
2021/06/09 01:25:43;;;;;;;18.20;15.52;;;17.10;91.90;;;;;;5032807;28;20025;-72
2021/06/09 01:28:09;;;;;;;19.85;17.35;;;17.00;92.00;;;;;;5033914;28;20099;-69
2021/06/09 01:30:36;;;;;;;19.67;16.60;;;17.10;92.00;;;;;;5050696;28;20501;-71
2021/06/09 01:33:02;;;;;;;19.17;16.35;;;17.00;91.90;;;;;;5043759;28;20033;-72
2021/06/09 01:35:28;;;;;;;20.58;15.82;;;17.00;91.90;;;;;;5046431;28;20365;-72
2021/06/09 01:37:54;;;;;;;24.42;17.42;;;16.90;91.90;;;;;;5041502;28;20048;-71
2021/06/09 01:40:22;;;;;;;27.77;17.63;;;16.80;92.00;;;;;;5031272;28;20104;-72
2021/06/09 01:42:49;;;;;;;36.90;17.33;;;16.80;92.10;;;;;;5013404;28;20025;-72
2021/06/09 01:45:18;;;;;;;31.70;17.80;;;16.80;92.10;;;;;;5029792;28;20083;-71
2021/06/09 01:47:44;;;;;;;23.63;18.42;;;16.80;92.10;;;;;;5031468;28;20032;-71
2021/06/09 01:50:12;;;;;;;22.42;17.10;;;16.70;92.10;;;;;;5031021;28;20047;-71
2021/06/09 01:52:38;;;;;;;29.02;19.13;;;16.70;92.30;;;;;;5031313;28;20052;-72
2021/06/09 01:55:06;;;;;;;38.75;19.27;;;16.70;92.30;;;;;;5047108;28;20033;-69
2021/06/09 01:57:32;;;;;;;57.92;19.80;;;16.70;92.30;;;;;;5049480;28;20071;-69
2021/06/09 01:59:58;;;;;;;24.02;19.30;;;16.70;92.30;;;;;;5050237;28;20757;-72
2021/06/09 02:02:24;;;;;;;24.02;18.42;;;16.70;92.30;;;;;;5041972;28;20101;-72
2021/06/09 02:04:49;;;;;;;23.05;17.95;;;16.60;92.30;;;;;;5042337;28;20105;-71
2021/06/09 02:07:15;;;;;;;21.45;17.40;;;16.60;92.30;;;;;;5029986;28;20021;-72
2021/06/09 02:09:41;;;;;;;22.50;17.73;;;16.60;92.40;;;;;;5034908;28;20021;-71
2021/06/09 02:12:08;;;;;;;21.73;17.58;;;16.60;92.50;;;;;;5048382;28;20040;-71
2021/06/09 02:14:35;;;;;;;20.38;16.45;;;16.60;92.50;;;;;;5045359;28;20496;-71
2021/06/09 02:17:02;;;;;;;21.70;17.92;;;16.60;92.50;;;;;;5012301;28;20517;-71
2021/06/09 02:19:28;;;;;;;24.98;18.30;;;16.50;92.40;;;;;;5032647;28;20029;-72
2021/06/09 02:21:54;;;;;;;22.38;18.33;;;16.50;92.40;;;;;;5049871;28;20035;-72
2021/06/09 02:24:21;;;;;;;23.60;17.75;;;16.50;92.40;;;;;;5035142;28;20021;-71
2021/06/09 02:26:49;;;;;;;23.60;18.05;;;16.40;92.50;;;;;;5030944;28;20100;-68
2021/06/09 02:29:15;;;;;;;59.65;19.42;;;16.40;92.50;;;;;;5023015;28;20033;-71
2021/06/09 02:31:46;;;;;;;33.17;19.02;;;16.30;92.60;;;;;;5031826;28;20074;-71
2021/06/09 02:34:17;;;;;;;23.45;18.85;;;16.30;92.60;;;;;;5030406;28;20056;-70
2021/06/09 02:36:43;;;;;;;24.02;18.92;;;16.30;92.80;;;;;;5047387;28;20476;-72
2021/06/09 02:39:11;;;;;;;64.97;19.73;;;16.30;92.90;;;;;;5049247;28;20036;-68
2021/06/09 02:41:37;;;;;;;24.92;19.13;;;16.30;92.90;;;;;;5050057;28;20104;-71
2021/06/09 02:44:04;;;;;;;28.00;19.55;;;16.30;92.90;;;;;;5048566;28;20096;-71
2021/06/09 02:46:37;;;;;;;24.55;17.77;;;16.30;92.90;;;;;;5040987;28;20057;-69
2021/06/09 02:49:08;;;;;;;24.85;19.08;;;16.30;93.00;;;;;;5030083;28;20029;-69
2021/06/09 02:51:40;;;;;;;25.25;19.35;;;16.30;93.00;;;;;;5023910;28;20024;-70
2021/06/09 02:54:45;;;;;;;22.85;17.50;;;16.40;93.00;;;;;;5046820;28;20032;-69
2021/06/09 02:57:33;;;;;;;21.20;17.25;;;16.40;93.10;;;;;;5025787;28;20076;-69
2021/06/09 03:00:06;;;;;;;21.60;16.92;;;16.50;93.10;;;;;;5047909;28;20036;-69
2021/06/09 03:02:55;;;;;;;22.15;18.38;;;16.50;93.10;;;;;;5026194;28;20045;-69
2021/06/09 03:05:29;;;;;;;21.80;17.92;;;16.50;93.10;;;;;;5048921;28;20101;-69
2021/06/09 03:08:16;;;;;;;21.58;17.00;;;16.50;93.10;;;;;;5049276;28;20040;-69
2021/06/09 03:10:49;;;;;;;23.55;18.25;;;16.60;93.10;;;;;;5049508;28;20036;-69
2021/06/09 03:14:01;;;;;;;23.45;17.58;;;16.60;93.00;;;;;;5028786;28;20512;-69
2021/06/09 03:17:00;;;;;;;22.38;18.40;;;16.60;93.00;;;;;;5031254;28;20061;-69
2021/06/09 03:20:04;;;;;;;22.33;17.83;;;16.60;93.00;;;;;;5033176;28;20041;-69
2021/06/09 03:23:04;;;;;;;20.98;16.80;;;16.60;93.20;;;;;;4994383;28;20088;-69
2021/06/09 03:25:36;;;;;;;20.38;15.55;;;16.60;93.00;;;;;;5038091;28;20397;-69
2021/06/09 03:28:21;;;;;;;20.65;16.25;;;16.60;93.00;;;;;;5048227;28;20024;-69
2021/06/09 03:30:55;;;;;;;18.63;15.48;;;16.60;93.00;;;;;;5044722;28;20044;-69
2021/06/09 03:33:23;;;;;;;17.50;15.05;;;16.60;93.00;;;;;;5047169;28;20401;-69
2021/06/09 03:35:55;;;;;;;17.17;15.27;;;16.60;93.00;;;;;;5031152;28;20371;-69
2021/06/09 03:38:37;;;;;;;19.42;15.48;;;16.70;93.00;;;;;;5029272;28;20048;-69
2021/06/09 03:41:09;;;;;;;19.00;15.95;;;16.70;93.00;;;;;;5046207;28;20033;-70
2021/06/09 03:43:38;;;;;;;18.42;15.07;;;16.60;92.90;;;;;;5050333;28;20437;-69
2021/06/09 03:46:07;;;;;;;22.75;15.85;;;16.70;93.00;;;;;;5032147;28;20636;-70
2021/06/09 03:48:38;;;;;;;20.80;15.55;;;16.70;93.00;;;;;;5033878;28;20065;-70
2021/06/09 03:51:05;;;;;;;18.55;14.25;;;16.70;93.00;;;;;;5031248;28;20484;-70
2021/06/09 03:53:33;;;;;;;15.98;13.52;;;16.70;92.90;;;;;;5048713;28;20036;-69
2021/06/09 03:56:02;;;;;;;16.38;12.98;;;16.70;92.90;;;;;;5034257;28;20485;-69
2021/06/09 03:58:29;;;;;;;15.73;12.63;;;16.70;92.90;;;;;;5074332;22;20092;-92
2021/06/09 04:00:56;;;;;;;14.85;11.95;;;16.70;92.90;;;;;;5038065;28;20029;-91
2021/06/09 04:03:23;;;;;;;13.18;10.75;;;16.70;92.80;;;;;;5034744;28;20512;-91
2021/06/09 04:05:51;;;;;;;15.77;10.40;;;16.70;92.80;;;;;;5047414;28;20040;-91
2021/06/09 04:08:18;;;;;;;13.68;10.50;;;16.70;92.70;;;;;;5037425;28;20029;-91
2021/06/09 04:10:47;;;;;;;13.25;10.88;;;16.70;92.70;;;;;;5036431;28;20041;-91
2021/06/09 04:13:14;;;;;;;14.95;11.80;;;16.70;92.70;;;;;;5038930;28;20047;-90
2021/06/09 04:15:40;;;;;;;13.00;11.38;;;16.70;92.70;;;;;;5036189;28;20029;-91
2021/06/09 04:18:09;;;;;;;13.82;10.75;;;16.70;92.60;;;;;;5035055;28;20030;-93
2021/06/09 04:20:38;;;;;;;13.38;10.85;;;16.70;92.60;;;;;;5037573;28;20026;-91
2021/06/09 04:23:04;;;;;;;14.57;11.13;;;16.70;92.60;;;;;;5039471;28;20040;-91
2021/06/09 04:25:30;;;;;;;13.40;11.48;;;16.70;92.60;;;;;;5038776;28;20021;-91
2021/06/09 04:27:57;;;;;;;16.02;11.70;;;16.70;92.50;;;;;;5042149;28;20642;-91
2021/06/09 04:30:23;;;;;;;14.60;12.88;;;16.70;92.50;;;;;;5050745;28;20025;-92
2021/06/09 04:32:54;;;;;;;20.20;13.40;;;16.70;92.60;;;;;;5063076;28;20037;-93
2021/06/09 04:35:23;;;;;;;13.93;12.43;;;16.70;92.60;;;;;;5050300;28;20021;-92
2021/06/09 04:37:48;;;;;;;16.50;13.48;;;16.70;92.60;;;;;;5056949;28;20074;-92
2021/06/09 04:40:23;;;;;;;16.38;14.52;;;16.80;92.60;;;;;;5043848;28;20085;-90
2021/06/09 04:42:49;;;;;;;19.50;14.80;;;16.80;92.60;;;;;;5039476;28;20108;-91
2021/06/09 04:45:17;;;;;;;20.70;15.77;;;16.80;92.60;;;;;;5037874;28;20098;-91
2021/06/09 04:47:44;;;;;;;17.08;14.90;;;16.80;92.70;;;;;;5037131;28;20135;-91
2021/06/09 04:50:11;;;;;;;17.45;15.45;;;16.80;92.60;;;;;;5038949;28;20021;-91
2021/06/09 04:52:37;;;;;;;20.30;16.02;;;16.80;92.60;;;;;;5047884;28;20025;-91
2021/06/09 04:55:04;;;;;;;21.92;16.20;;;16.80;92.60;;;;;;5046193;28;20043;-91
2021/06/09 04:57:29;;;;;;;17.60;15.35;;;16.80;92.60;;;;;;5037733;28;20421;-92
2021/06/09 04:59:55;;;;;;;17.08;15.20;;;16.80;92.60;;;;;;5012700;28;20057;-92
2021/06/09 05:02:21;;;;;;;19.83;16.90;;;16.80;92.70;;;;;;5026952;28;20028;-90
2021/06/09 05:04:47;;;;;;;19.55;16.50;;;16.80;92.70;;;;;;5037877;28;20032;-91
2021/06/09 05:07:12;;;;;;;20.40;17.25;;;16.80;92.60;;;;;;5037729;28;20032;-91
2021/06/09 05:09:38;;;;;;;18.55;16.20;;;16.80;92.70;;;;;;5038792;28;20025;-90
2021/06/09 05:12:13;;;;;;;20.25;17.27;;;16.80;92.70;;;;;;5038170;28;20400;-91
2021/06/09 05:14:54;;;;;;;26.98;17.77;;;16.90;92.80;;;;;;5037614;28;20041;-91
2021/06/09 05:17:25;;;;;;;20.67;17.23;;;16.90;92.90;;;;;;5031769;28;20036;-93
2021/06/09 05:19:52;;;;;;;20.52;17.52;;;16.90;92.90;;;;;;5018599;28;20030;-91
2021/06/09 05:22:26;;;;;;;20.42;17.08;;;16.90;93.00;;;;;;5028445;28;20025;-91
2021/06/09 05:24:54;;;;;;;22.90;17.60;;;16.90;92.90;;;;;;5054750;28;20017;-91
2021/06/09 05:27:22;;;;;;;23.65;17.70;;;17.00;92.90;;;;;;5029765;28;20120;-90
2021/06/09 05:29:49;;;;;;;20.45;16.90;;;17.00;92.90;;;;;;5038442;28;20044;-91
2021/06/09 05:32:15;;;;;;;27.63;21.02;;;17.00;92.90;;;;;;5034211;28;20029;-91
2021/06/09 05:34:42;;;;;;;22.48;18.33;;;17.00;92.80;;;;;;5037361;28;20086;-90
2021/06/09 05:37:10;;;;;;;22.20;18.33;;;17.00;93.10;;;;;;5037065;28;20401;-91
2021/06/09 05:39:38;;;;;;;21.27;17.15;;;17.00;92.80;;;;;;5037253;28;20120;-91
2021/06/09 05:42:12;;;;;;;24.15;19.00;;;17.00;92.90;;;;;;5037389;28;20021;-91
2021/06/09 05:44:44;;;;;;;25.88;19.92;;;17.00;93.00;;;;;;5054374;28;20028;-91
2021/06/09 05:47:10;;;;;;;26.20;20.83;;;17.10;93.10;;;;;;5037043;28;20038;-91
2021/06/09 05:49:36;;;;;;;28.55;22.27;;;17.20;93.10;;;;;;5055843;28;20029;-91
2021/06/09 05:52:02;;;;;;;31.67;22.65;;;17.30;93.20;;;;;;5038024;28;20039;-91
2021/06/09 05:54:39;;;;;;;31.08;21.75;;;17.40;93.20;;;;;;5036260;28;20553;-91
2021/06/09 05:57:07;;;;;;;29.38;22.38;;;17.50;93.20;;;;;;5054698;28;20120;-91
2021/06/09 05:59:33;;;;;;;32.50;24.23;;;17.60;93.40;;;;;;5031332;28;20022;-91
2021/06/09 06:01:59;;;;;;;34.08;24.63;;;17.60;93.10;;;;;;5030842;28;20029;-92
2021/06/09 06:04:26;;;;;;;34.13;25.15;;;17.70;93.10;;;;;;5059474;28;20085;-91
2021/06/09 06:06:53;;;;;;;37.33;24.35;;;17.70;93.10;;;;;;5055025;28;20032;-92
2021/06/09 06:09:18;;;;;;;37.63;25.33;;;17.80;93.10;;;;;;5053902;28;20029;-93
2021/06/09 06:11:46;;;;;;;35.13;25.40;;;17.90;93.10;;;;;;5056648;28;20025;-91
2021/06/09 06:14:15;;;;;;;35.72;24.90;;;17.90;93.10;;;;;;5038089;28;20040;-91
2021/06/09 06:16:55;;;;;;;37.15;24.67;;;17.90;93.10;;;;;;5037723;28;20025;-92
2021/06/09 06:19:21;;;;;;;32.13;23.98;;;18.10;93.10;;;;;;5037080;28;20493;-91
2021/06/09 06:21:48;;;;;;;31.85;23.95;;;18.10;93.10;;;;;;5031344;28;20144;-91
2021/06/09 06:24:19;;;;;;;31.63;23.83;;;18.30;93.10;;;;;;5028543;28;20068;-91
2021/06/09 06:26:50;;;;;;;30.98;23.58;;;18.40;93.10;;;;;;5054936;28;20548;-91
2021/06/09 06:29:16;;;;;;;29.73;22.67;;;18.50;93.00;;;;;;5034295;28;20021;-91
2021/06/09 06:31:42;;;;;;;29.75;22.90;;;18.60;92.90;;;;;;5037194;28;20092;-91
2021/06/09 06:34:08;;;;;;;28.42;22.20;;;18.70;92.90;;;;;;5033201;28;20195;-91
2021/06/09 06:36:36;;;;;;;31.85;22.73;;;18.70;92.90;;;;;;5035821;28;20095;-93
2021/06/09 06:39:07;;;;;;;28.17;22.20;;;18.80;92.80;;;;;;5034880;28;20048;-93
2021/06/09 06:41:33;;;;;;;29.65;22.08;;;18.90;92.90;;;;;;5037227;28;20021;-91
2021/06/09 06:43:59;;;;;;;27.33;20.92;;;18.90;92.60;;;;;;5035915;28;20445;-92
2021/06/09 06:46:25;;;;;;;27.10;22.23;;;19.00;92.60;;;;;;5025799;28;20039;-92
2021/06/09 06:48:53;;;;;;;24.67;19.80;;;19.20;92.50;;;;;;5018054;28;20029;-94
2021/06/09 06:51:20;;;;;;;23.20;18.10;;;19.40;92.40;;;;;;5030514;28;20087;-92
2021/06/09 06:53:47;;;;;;;22.50;18.10;;;19.60;92.30;;;;;;5034927;28;20521;-91
2021/06/09 06:56:15;;;;;;;20.63;16.25;;;19.80;92.10;;;;;;5048453;28;20101;-91
2021/06/09 06:58:49;;;;;;;17.95;14.93;;;20.00;91.90;;;;;;5034492;28;20120;-91
2021/06/09 07:01:17;;;;;;;18.67;14.05;;;20.20;91.60;;;;;;5021994;28;20079;-91
2021/06/09 07:03:43;;;;;;;18.33;14.43;;;20.40;91.20;;;;;;5029774;28;20441;-91
2021/06/09 07:06:09;;;;;;;17.52;14.00;;;20.70;90.90;;;;;;5042406;28;20025;-90
2021/06/09 07:08:39;;;;;;;14.15;12.48;;;20.80;90.60;;;;;;5028244;28;20084;-91
2021/06/09 07:11:05;;;;;;;16.02;13.75;;;21.10;90.30;;;;;;5029269;28;20506;-90
2021/06/09 07:13:48;;;;;;;17.27;13.32;;;21.30;90.10;;;;;;5018443;28;20037;-91
2021/06/09 07:16:24;;;;;;;17.10;13.75;;;21.60;89.10;;;;;;5014385;28;20049;-91
2021/06/09 07:18:53;;;;;;;16.27;12.23;;;21.90;88.50;;;;;;5030701;28;20120;-90
2021/06/09 07:21:27;;;;;;;13.75;12.02;;;22.10;87.60;;;;;;5043624;28;20526;-91
2021/06/09 07:23:59;;;;;;;14.10;12.15;;;22.40;86.70;;;;;;5033600;28;20401;-91
2021/06/09 07:26:43;;;;;;;;;;;22.70;86.60;;;;;;5034070;28;20017;-90
2021/06/09 07:29:18;;;;;;;14.00;12.00;;;23.00;86.90;;;;;;5033171;28;19913;-90
2021/06/09 07:31:55;;;;;;;15.05;12.15;;;23.30;85.70;;;;;;5025418;28;20078;-90
2021/06/09 07:34:31;;;;;;;14.88;12.63;;;23.50;84.00;;;;;;5036088;28;20052;-89
2021/06/09 07:37:18;;;;;;;17.52;11.65;;;23.80;83.00;;;;;;5036833;28;20124;-90
2021/06/09 07:40:11;;;;;;;13.77;11.98;;;23.90;81.90;;;;;;5033848;28;20025;-90
2021/06/09 07:42:37;;;;;;;15.73;11.70;;;24.00;81.10;;;;;;5055419;28;20044;-90
2021/06/09 07:45:10;;;;;;;11.82;9.32;;;24.00;81.20;;;;;;5040962;28;20053;-90
2021/06/09 07:47:39;;;;;;;12.75;9.80;;;24.10;80.70;;;;;;5041498;28;20524;-90
2021/06/09 07:50:08;;;;;;;11.32;10.13;;;24.50;80.10;;;;;;5042106;28;20040;-90
2021/06/09 07:52:36;;;;;;;14.23;9.57;;;24.80;78.40;;;;;;5042017;28;20067;-90
2021/06/09 07:55:04;;;;;;;11.75;10.55;;;25.20;77.90;;;;;;5040350;28;20028;-90
2021/06/09 07:57:33;;;;;;;13.18;11.07;;;25.50;76.30;;;;;;5041651;28;20031;-90
2021/06/09 08:00:11;;;;;;;12.70;10.93;;;25.80;75.70;;;;;;5041413;28;20068;-92
2021/06/09 08:02:40;;;;;;;12.77;10.65;;;26.20;74.70;;;;;;5028945;28;20108;-90
2021/06/09 08:05:07;;;;;;;16.73;10.88;;;26.50;74.00;;;;;;5021777;28;20166;-91
2021/06/09 08:07:36;;;;;;;11.95;9.77;;;26.80;72.90;;;;;;5022939;28;20409;-90
2021/06/09 08:10:05;;;;;;;13.88;9.95;;;27.10;71.80;;;;;;5021911;28;20029;-90
2021/06/09 08:12:31;;;;;;;12.40;9.48;;;27.30;71.70;;;;;;5022883;28;20097;-90
2021/06/09 08:14:56;;;;;;;12.25;9.95;;;27.60;71.10;;;;;;5020290;28;20057;-90
2021/06/09 08:17:23;;;;;;;11.63;10.20;;;27.90;69.80;;;;;;5021848;28;20029;-90
2021/06/09 08:19:48;;;;;;;11.38;9.38;;;28.00;68.50;;;;;;5022034;28;20026;-90
2021/06/09 08:22:14;;;;;;;9.35;8.48;;;27.90;67.20;;;;;;5022282;28;20076;-90
2021/06/09 08:24:39;;;;;;;12.55;9.07;;;27.70;67.30;;;;;;5027174;28;20025;-90
2021/06/09 08:27:06;;;;;;;11.52;9.40;;;27.80;67.60;;;;;;5056068;28;20017;-90
2021/06/09 08:29:34;;;;;;;11.52;9.70;;;28.00;67.40;;;;;;5033202;28;20028;-90
2021/06/09 08:32:00;;;;;;;10.18;9.18;;;28.30;66.40;;;;;;5023877;28;20040;-90
2021/06/09 08:34:25;;;;;;;9.27;8.05;;;28.70;66.40;;;;;;5021025;28;20025;-90
2021/06/09 08:36:55;;;;;;;9.40;8.48;;;29.10;65.70;;;;;;5021326;28;20052;-90
2021/06/09 08:39:21;;;;;;;11.18;7.95;;;29.70;64.10;;;;;;5024871;28;20035;-91
2021/06/09 08:41:49;;;;;;;8.82;7.90;;;30.10;62.40;;;;;;5041352;28;20028;-90
2021/06/09 08:44:16;;;;;;;7.90;7.20;;;30.60;61.40;;;;;;5039222;28;20025;-91
2021/06/09 08:46:42;;;;;;;8.00;7.18;;;30.60;61.30;;;;;;5040743;28;20171;-90
2021/06/09 08:49:08;;;;;;;10.02;7.95;;;30.70;59.60;;;;;;5041483;28;20057;-90
2021/06/09 08:51:35;;;;;;;9.68;7.57;;;30.70;58.20;;;;;;5035981;28;20029;-90
2021/06/09 08:54:07;;;;;;;6.80;5.88;;;30.70;58.40;;;;;;5041029;28;20029;-91
2021/06/09 08:56:33;;;;;;;11.40;6.53;;;31.00;57.90;;;;;;5037550;28;20030;-91
2021/06/09 08:58:59;;;;;;;7.28;6.55;;;31.70;57.30;;;;;;5037122;28;20036;-92
2021/06/09 09:01:25;;;;;;;6.75;5.07;;;32.30;56.20;;;;;;5040541;28;20035;-90
2021/06/09 09:03:52;;;;;;;9.85;6.50;;;32.50;55.30;;;;;;5058106;28;20473;-91
2021/06/09 09:06:20;;;;;;;5.70;5.20;;;32.50;55.00;;;;;;5040366;28;20437;-93
2021/06/09 09:08:46;;;;;;;7.78;5.13;;;32.20;54.90;;;;;;5038666;28;20481;-91
2021/06/09 09:11:11;;;;;;;5.45;4.95;;;32.10;55.20;;;;;;5040074;28;20059;-91
2021/06/09 09:13:37;;;;;;;9.18;5.63;;;32.90;54.30;;;;;;5058892;28;20033;-91
2021/06/09 09:16:04;;;;;;;6.40;5.80;;;33.60;51.90;;;;;;5037906;28;20088;-88
2021/06/09 09:18:42;;;;;;;5.78;5.13;;;34.00;50.50;;;;;;5050646;28;20052;-89
2021/06/09 09:21:10;;;;;;;5.30;4.80;;;34.40;50.30;;;;;;5018612;28;20032;-89
2021/06/09 09:23:37;;;;;;;4.90;4.38;;;34.80;50.20;;;;;;5052337;28;20025;-89
2021/06/09 09:26:32;;;;;;;5.40;4.90;;;35.40;50.00;;;;;;5038670;28;20021;-89
2021/06/09 09:29:30;;;;;;;6.18;4.30;;;35.80;49.00;;;;;;5051802;28;20025;-90
2021/06/09 09:32:05;;;;;;;5.07;3.90;;;36.20;49.00;;;;;;4997327;28;20052;-91
2021/06/09 09:34:43;;;;;;;4.13;3.83;;;36.40;46.30;;;;;;5038993;28;20036;-90
2021/06/09 09:37:23;;;;;;;4.20;3.90;;;36.70;45.20;;;;;;5032809;28;20017;-89
2021/06/09 09:40:14;;;;;;;4.95;3.70;;;36.90;44.40;;;;;;5019351;28;20022;-89
2021/06/09 09:42:40;;;;;;;;;;;37.00;44.50;;;;;;5011515;28;20056;-90
2021/06/09 09:45:15;;;;;;;3.67;3.35;;;37.20;48.90;;;;;;5036615;28;19910;-90
2021/06/09 09:47:40;;;;;;;3.92;3.20;;;37.30;44.60;;;;;;5027400;28;20017;-90
2021/06/09 09:50:06;;;;;;;4.53;3.72;;;37.30;44.20;;;;;;5028809;28;20040;-90
2021/06/09 09:52:52;;;;;;;4.07;3.72;;;37.20;43.30;;;;;;5024790;28;20021;-89
2021/06/09 09:55:18;;;;;;;3.67;3.30;;;36.90;43.60;;;;;;5024872;28;20136;-89
2021/06/09 09:57:43;;;;;;;3.35;2.78;;;36.80;43.60;;;;;;5019124;28;20053;-89
2021/06/09 10:00:10;;;;;;;2.83;2.63;;;36.80;43.30;;;;;;5059315;22;20076;-68
2021/06/09 10:02:36;;;;;;;3.47;3.17;;;36.60;42.50;;;;;;5058596;28;20072;-68
2021/06/09 10:05:10;;;;;;;3.22;3.03;;;36.20;42.30;;;;;;5029864;28;20496;-68
2021/06/09 10:07:37;;;;;;;3.00;2.80;;;35.80;41.90;;;;;;5030981;28;20448;-69
2021/06/09 10:10:05;;;;;;;2.90;2.80;;;35.60;42.80;;;;;;5033117;28;20029;-67
2021/06/09 10:12:31;;;;;;;3.15;2.95;;;35.50;43.80;;;;;;5050175;28;20067;-67
2021/06/09 10:14:57;;;;;;;3.55;3.25;;;35.40;43.50;;;;;;5049920;28;20055;-69
2021/06/09 10:17:25;;;;;;;4.05;3.13;;;35.10;43.40;;;;;;5050509;28;20504;-68
2021/06/09 10:19:56;;;;;;;4.28;3.20;;;34.80;43.70;;;;;;5050933;28;20093;-68
2021/06/09 10:22:34;;;;;;;;;;;34.60;43.80;;;;;;5051299;28;20507;-68
2021/06/09 10:25:07;;;;;;;3.47;2.80;;;34.40;47.60;;;;;;5045456;28;19924;-68
2021/06/09 10:27:34;;;;;;;3.42;3.15;;;34.10;45.90;;;;;;5044858;28;20051;-68
2021/06/09 10:30:00;;;;;;;5.07;3.20;;;33.80;44.90;;;;;;5032291;28;20098;-67
2021/06/09 10:32:27;;;;;;;3.35;3.15;;;33.30;44.60;;;;;;5050599;28;20021;-66
2021/06/09 10:34:53;;;;;;;5.07;4.18;;;32.80;45.10;;;;;;5049640;28;20396;-66
2021/06/09 10:37:19;;;;;;;4.88;4.35;;;32.50;45.90;;;;;;5050482;28;20023;-66
2021/06/09 10:39:45;;;;;;;4.18;3.45;;;32.30;46.40;;;;;;5050796;28;20025;-66
2021/06/09 10:42:14;;;;;;;4.95;4.50;;;32.10;46.30;;;;;;5042186;28;20408;-66
2021/06/09 10:44:44;;;;;;;4.38;3.17;;;31.90;45.70;;;;;;5048731;28;20017;-69
2021/06/09 10:47:25;;;;;;;3.28;3.08;;;31.70;46.40;;;;;;5030838;28;20017;-66
2021/06/09 10:49:51;;;;;;;4.22;3.80;;;31.40;46.30;;;;;;5012919;28;20025;-66
2021/06/09 10:52:18;;;;;;;5.32;4.13;;;31.20;46.50;;;;;;5030566;28;20032;-66
2021/06/09 10:54:44;;;;;;;6.35;4.50;;;31.20;47.40;;;;;;5029617;28;20083;-66
2021/06/09 10:57:11;;;;;;;5.72;4.65;;;31.10;47.20;;;;;;5030079;28;20022;-66
2021/06/09 10:59:37;;;;;;;5.30;4.80;;;31.00;47.10;;;;;;5040664;28;20036;-66
2021/06/09 11:02:10;;;;;;;7.97;5.70;;;30.70;47.50;;;;;;5048591;28;20029;-66
2021/06/09 11:04:38;;;;;;;6.03;5.35;;;30.40;48.40;;;;;;5049291;28;20067;-67
2021/06/09 11:07:06;;;;;;;7.30;5.60;;;30.30;49.20;;;;;;5051149;28;20032;-65
2021/06/09 11:09:32;;;;;;;5.80;5.28;;;30.10;49.30;;;;;;5054529;28;20050;-66
2021/06/09 11:12:12;;;;;;;7.13;6.20;;;30.00;49.90;;;;;;5054106;28;20115;-68
2021/06/09 11:14:56;;;;;;;6.88;5.78;;;29.80;49.20;;;;;;5053026;28;20100;-68
2021/06/09 11:17:44;;;;;;;6.35;5.60;;;29.70;50.40;;;;;;5034216;28;20082;-68
2021/06/09 11:20:11;;;;;;;7.13;5.30;;;29.70;50.40;;;;;;5053685;28;20025;-67
2021/06/09 11:22:44;;;;;;;6.07;5.47;;;29.60;51.10;;;;;;5054323;28;20029;-68
2021/06/09 11:25:14;;;;;;;6.10;5.50;;;29.60;51.20;;;;;;5053247;28;20104;-68
2021/06/09 11:27:59;;;;;;;6.63;5.38;;;29.40;50.90;;;;;;5052958;28;20384;-67
2021/06/09 11:30:24;;;;;;;9.10;5.78;;;29.20;51.50;;;;;;5053716;28;20025;-66
2021/06/09 11:32:55;;;;;;;6.32;5.63;;;29.10;51.90;;;;;;5035900;28;20373;-67
2021/06/09 11:35:39;;;;;;;6.43;5.80;;;29.10;51.80;;;;;;5050448;28;20515;-66
2021/06/09 11:38:14;;;;;;;9.50;5.22;;;29.10;52.00;;;;;;5033726;28;20025;-66
2021/06/09 11:41:11;;;;;;;7.40;5.50;;;29.10;52.30;;;;;;5033865;28;20108;-67
2021/06/09 11:43:37;;;;;;;7.65;5.80;;;29.00;52.40;;;;;;5021925;28;20029;-66
2021/06/09 11:46:26;;;;;;;6.32;5.72;;;28.80;52.40;;;;;;5052236;28;20040;-66
2021/06/09 11:48:58;;;;;;;8.13;5.10;;;28.60;52.10;;;;;;5035645;28;20037;-66
2021/06/09 11:51:33;;;;;;;5.88;5.05;;;28.40;52.90;;;;;;5053619;28;20593;-66
2021/06/09 11:54:28;;;;;;;6.57;5.57;;;28.40;53.60;;;;;;5052725;28;20441;-66
2021/06/09 11:56:59;;;;;;;6.82;5.45;;;28.50;53.30;;;;;;5047933;28;20044;-67
2021/06/09 11:59:27;;;;;;;8.80;5.60;;;28.70;53.20;;;;;;5035300;28;20025;-66
2021/06/09 12:01:55;;;;;;;11.30;5.88;;;28.80;52.90;;;;;;5053356;28;20342;-67
2021/06/09 12:04:29;;;;;;;8.48;6.50;;;28.80;53.00;;;;;;5052382;28;20386;-67
2021/06/09 12:06:57;;;;;;;6.22;5.47;;;28.90;53.30;;;;;;5052841;28;20075;-66
2021/06/09 12:09:24;;;;;;;8.30;5.40;;;28.90;53.60;;;;;;5053455;28;20491;-66
2021/06/09 12:11:52;;;;;;;6.45;5.80;;;28.80;53.90;;;;;;5053176;28;20029;-66
2021/06/09 12:14:33;;;;;;;6.43;5.68;;;28.70;53.40;;;;;;5033971;28;20090;-66
2021/06/09 12:17:31;;;;;;;5.70;5.10;;;28.60;53.50;;;;;;5029766;28;20025;-66
2021/06/09 12:20:07;;;;;;;6.13;4.85;;;28.40;54.10;;;;;;5017493;28;20037;-66
2021/06/09 12:22:35;;;;;;;5.65;5.07;;;28.20;54.50;;;;;;5015166;28;20057;-66
2021/06/09 12:25:09;;;;;;;7.22;5.30;;;28.00;55.00;;;;;;5032239;28;20025;-67
2021/06/09 12:27:39;;;;;;;7.95;5.85;;;27.70;55.60;;;;;;5047284;28;20025;-67
2021/06/09 12:30:07;;;;;;;7.50;6.70;;;27.50;56.80;;;;;;5052753;28;20112;-66
2021/06/09 12:32:34;;;;;;;7.50;6.28;;;27.20;57.70;;;;;;5040071;28;20037;-66
2021/06/09 12:35:02;;;;;;;5.43;4.80;;;26.90;58.80;;;;;;5031865;28;20218;-66
2021/06/09 12:37:30;;;;;;;5.45;4.90;;;26.60;58.60;;;;;;5032781;28;20029;-66
2021/06/09 12:40:01;;;;;;;5.82;4.80;;;26.30;60.00;;;;;;5033106;28;20064;-67
2021/06/09 12:42:28;;;;;;;6.35;4.20;;;25.90;59.50;;;;;;5043409;28;20025;-67
2021/06/09 12:44:54;;;;;;;5.22;4.13;;;25.60;60.00;;;;;;5051548;28;20377;-66
2021/06/09 12:47:40;;;;;;;10.68;5.38;;;25.20;60.70;;;;;;5041658;28;20163;-68
2021/06/09 12:50:12;;;;;;;4.55;4.07;;;24.90;61.40;;;;;;5034885;28;20048;-66